Southbridge, MA

4:17 PM EST on January 26, 2015 (GMT -0500)
Dennison Hill | Change Station
CLOSE
Current Station
Personal Weather Station
Location: Southbridge, MA
Elevation: 784 ft
Nearby Weather Stations
Active Advisory: Blizzard Warning

Elev 784 ft 42.06 °N, 72.06 °W | Updated 6 seconds ago

Snow
Snow
18.9 °F
Feels Like 19 °F
N
0.0
Wind Variable Wind from NNE
Gusts 0.0 mph

Today
High -- | Low -- °F
--% Chance of Precip.
Yesterday
High -- | Low -- °F
Precip. -- in
7:06 AM 4:54 PM
Waxing Crescent, 46% visible
Pressure 30.01 in
Visibility 2.5 miles
Clouds Overcast 1200 ft
Windchill 19 °F
Dew Point 11 °F
Humidity 72%
Rainfall 0.00 in
Snow Depth Not available.
UV 0.0 out of 12
Pollen .10 out of 12
Air Quality Not available.
Flu Activity Not available.
METAR KORH 262054Z 04011KT 2 1/2SM -SN OVC012 M08/M11 A2994 RMK AO2 TWR VIS 3 VIS 2V4 SNB37 SLP160 P0000 60000 T10831111 58009

More Conditions Fewer Conditions

Pressure 30.01 in
Visibility 2.5 miles
Clouds Overcast 1200 ft
Windchill 19 °F
Dew Point 11 °F
Humidity 72%
Rainfall 0.00 in
Snow Depth Not available.
UV 0.0 out of 12
Pollen .10 out of 12
Air Quality Not available.
Flu Activity Not available.
METAR KORH 262054Z 04011KT 2 1/2SM -SN OVC012 M08/M11 A2994 RMK AO2 TWR VIS 3 VIS 2V4 SNB37 SLP160 P0000 60000 T10831111 58009

More Conditions Fewer Conditions

10-Day Weather Forecast

Almanac

Astronomy

Jan. 26, 2015 Rise Set
Actual Time
Civil Twilight
Nautical Twilight
Astronomical Twilight
Moon
Length of Visible Light
Length of Day
Tomorrow will be .
, % of the Moon is Illuminated

Today's Extremes

State Highs State Lows

Community

WunderPhotos

Upload Photos

1,790,364 photos uploaded!

WunderBlogs® & News

Nearby

Air Quality

  Air Quality AQ Index Pollutant
Not available.

Snow Depth

Station Depth Elevation

Earthquake Activity

City Distance Mag. Time & Date
Minimum magnitude displayed is 2.5.

Coastal Water Temperatures

Place Temperature

Nearby Weather Stations